Time;durP1;ratioP1;P1;durP2;ratioP2;P2;SDS_P1;SDS_P2;PMS_P1;PMS_P2;Temp;Humidity;BMP_temperature;BMP_pressure;BME280_temperature;BME280_humidity;BME280_pressure;Samples;Min_cycle;Max_cycle;Signal;HPM_P1;HPM_P2
2022/06/12 00:00:30;;;;;;;6.80;5.07;;;;;;;18.16;76.24;98652.66;5014361;28;20298;-69
2022/06/12 00:02:58;;;;;;;6.50;4.70;;;;;;;18.15;75.91;98655.59;5011472;28;20573;-69
2022/06/12 00:05:28;;;;;;;6.43;4.80;;;;;;;18.08;76.94;98649.56;5013998;28;20202;-69
2022/06/12 00:07:54;;;;;;;7.47;4.73;;;;;;;18.00;77.42;98653.53;5013152;28;20305;-69
2022/06/12 00:10:21;;;;;;;6.87;4.97;;;;;;;18.01;77.48;98655.16;5012505;28;20394;-69
2022/06/12 00:12:48;;;;;;;5.90;4.93;;;;;;;18.05;78.09;98652.78;5013100;28;20729;-69
2022/06/12 00:15:19;;;;;;;6.63;4.43;;;;;;;18.03;77.85;98658.41;5014015;28;20233;-69
2022/06/12 00:17:46;;;;;;;8.80;4.50;;;;;;;17.96;79.49;98657.78;5013065;28;20288;-69
2022/06/12 00:20:15;;;;;;;5.60;4.60;;;;;;;17.96;78.47;98651.59;5014064;28;20297;-69
2022/06/12 00:22:42;;;;;;;6.13;5.00;;;;;;;17.96;78.92;98652.41;5013354;28;20289;-69
2022/06/12 00:25:10;;;;;;;7.13;5.20;;;;;;;17.94;78.33;98651.03;5013556;28;20559;-69
2022/06/12 00:27:37;;;;;;;7.30;4.97;;;;;;;17.85;79.53;98652.53;5013320;28;20217;-69
2022/06/12 00:30:06;;;;;;;8.80;4.97;;;;;;;17.86;79.01;98646.09;5013941;28;20211;-69
2022/06/12 00:32:33;;;;;;;6.03;5.00;;;;;;;17.78;80.12;98649.22;5012132;28;20210;-69
2022/06/12 00:35:00;;;;;;;11.93;5.33;;;;;;;17.72;80.40;98656.41;5012161;28;20328;-69
2022/06/12 00:37:27;;;;;;;7.83;5.00;;;;;;;17.68;80.53;98655.28;5011980;28;20732;-69
2022/06/12 00:39:57;;;;;;;6.83;4.73;;;;;;;17.70;80.29;98655.88;5012196;28;20226;-69
2022/06/12 00:42:32;;;;;;;7.83;4.77;;;;;;;17.72;80.80;98651.03;5013107;28;20297;-69
2022/06/12 00:45:01;;;;;;;9.50;5.27;;;;;;;17.63;80.98;98652.53;5012458;28;20658;-69
2022/06/12 00:47:28;;;;;;;6.53;4.63;;;;;;;17.60;81.20;98653.03;5012821;28;20289;-70
2022/06/12 00:50:00;;;;;;;6.00;4.60;;;;;;;17.51;81.82;98649.13;5011673;28;20313;-69
2022/06/12 00:52:46;;;;;;;6.50;4.50;;;;;;;17.43;82.77;98652.28;5014521;28;20190;-69
2022/06/12 00:55:24;;;;;;;9.30;4.70;;;;;;;17.43;82.70;98652.28;5012823;28;20229;-69
2022/06/12 00:57:54;;;;;;;6.67;4.90;;;;;;;17.38;82.99;98652.16;5012651;28;20226;-69
2022/06/12 01:00:21;;;;;;;6.53;4.60;;;;;;;17.32;83.42;98655.03;5012442;28;20717;-69
2022/06/12 01:02:47;;;;;;;6.00;4.73;;;;;;;17.29;83.69;98650.94;5011961;28;20294;-69
2022/06/12 01:08:04;;;;;;;7.50;4.73;;;;;;;17.39;82.96;98645.78;5013294;28;20630;-69
2022/06/12 01:10:32;;;;;;;9.90;4.93;;;;;;;17.28;83.57;98646.63;5012768;28;20585;-69
2022/06/12 01:13:04;;;;;;;6.27;4.70;;;;;;;17.25;84.12;98640.94;5013520;28;20293;-69
2022/06/12 01:15:36;;;;;;;6.27;4.83;;;;;;;17.13;84.97;98637.53;5011477;28;20222;-69
2022/06/12 01:18:06;;;;;;;10.17;4.73;;;;;;;17.06;85.50;98640.41;5011779;28;20233;-69
2022/06/12 01:20:41;;;;;;;8.70;4.80;;;;;;;17.07;86.12;98647.41;5012478;28;20294;-69
2022/06/12 01:23:26;;;;;;;5.07;4.30;;;;;;;17.13;85.87;98646.44;5012737;28;20202;-69
2022/06/12 01:26:06;;;;;;;6.67;4.83;;;;;;;17.10;86.16;98646.91;5011918;28;20230;-69
2022/06/12 01:28:36;;;;;;;6.23;4.47;;;;;;;17.08;85.80;98634.78;5013408;28;20230;-70
2022/06/12 01:31:03;;;;;;;6.53;4.83;;;;;;;16.98;85.96;98643.53;5012645;28;20286;-69
2022/06/12 01:33:38;;;;;;;7.17;5.00;;;;;;;16.98;85.85;98640.00;5012538;28;20294;-69
2022/06/12 01:36:28;;;;;;;5.47;4.47;;;;;;;17.05;85.26;98636.09;5010154;28;20301;-69
2022/06/12 01:39:16;;;;;;;5.10;4.60;;;;;;;17.07;85.11;98643.91;5012344;28;20313;-69
2022/06/12 01:41:54;;;;;;;5.70;4.80;;;;;;;17.06;85.47;98644.97;5012458;28;20226;-69
2022/06/12 01:44:35;;;;;;;5.47;4.90;;;;;;;16.95;86.23;98648.53;5012784;28;20234;-69
2022/06/12 01:47:13;;;;;;;5.97;4.50;;;;;;;16.83;86.85;98651.31;5011516;28;20234;-70
2022/06/12 01:49:51;;;;;;;5.67;4.60;;;;;;;16.78;87.44;98643.19;5013180;28;20262;-69
2022/06/12 01:52:33;;;;;;;5.40;4.83;;;;;;;16.80;87.66;98638.41;5010957;28;20204;-69
2022/06/12 01:55:05;;;;;;;7.17;4.93;;;;;;;16.83;87.85;98645.94;5016392;28;20298;-69
2022/06/12 01:57:57;;;;;;;5.87;4.70;;;;;;;16.82;87.97;98641.63;5015050;28;20290;-70
2022/06/12 02:00:25;;;;;;;6.03;4.97;;;;;;;16.72;87.92;98637.97;5015967;28;20265;-69
2022/06/12 02:02:55;;;;;;;10.27;4.80;;;;;;;16.59;88.30;98643.66;5016586;28;20576;-69
2022/06/12 02:05:32;;;;;;;7.23;4.83;;;;;;;16.54;88.59;98639.03;5015696;28;20289;-69
2022/06/12 02:08:06;;;;;;;5.50;4.43;;;;;;;16.53;89.07;98641.94;4996420;28;20594;-69
2022/06/12 02:10:40;;;;;;;5.37;4.70;;;;;;;16.49;88.72;98632.75;5008401;28;20297;-69
2022/06/12 02:13:11;;;;;;;5.40;4.37;;;;;;;16.43;88.83;98639.91;5015272;28;20277;-70
2022/06/12 02:16:07;;;;;;;7.50;4.80;;;;;;;16.35;89.93;98636.75;5014710;28;20322;-69
2022/06/12 02:18:41;;;;;;;7.63;4.90;;;;;;;16.43;89.78;98634.56;5010937;28;20807;-69
2022/06/12 02:21:26;;;;;;;7.23;5.10;;;;;;;16.47;90.24;98635.66;5014645;28;20206;-69
2022/06/12 02:24:21;;;;;;;8.57;4.53;;;;;;;16.50;88.91;98632.50;5012580;28;20203;-69
2022/06/12 02:27:00;;;;;;;5.37;4.63;;;;;;;16.54;88.70;98636.34;4996158;28;20302;-69
2022/06/12 02:29:34;;;;;;;6.30;4.77;;;;;;;16.48;89.37;98642.69;4996066;28;20227;-69
2022/06/12 02:32:06;;;;;;;6.87;4.90;;;;;;;16.46;89.18;98644.00;5015565;28;20214;-69
2022/06/12 02:34:37;;;;;;;6.17;5.00;;;;;;;16.43;90.54;98639.09;5015162;28;20207;-69
2022/06/12 02:37:12;;;;;;;6.80;5.17;;;;;;;16.48;89.41;98645.38;5015829;28;20313;-69
2022/06/12 02:39:43;;;;;;;7.07;5.10;;;;;;;16.38;90.06;98647.03;5013797;28;20221;-69
2022/06/12 02:42:23;;;;;;;7.57;5.23;;;;;;;16.34;90.96;98641.34;5015852;28;20281;-69
2022/06/12 02:45:28;;;;;;;8.40;5.20;;;;;;;16.39;90.06;98645.97;5014864;28;20215;-69
2022/06/12 02:47:55;;;;;;;6.10;4.87;;;;;;;16.29;90.90;98643.91;4982470;28;20715;-69
2022/06/12 02:50:25;;;;;;;7.97;5.20;;;;;;;16.27;90.96;98643.34;5014790;28;20205;-68
2022/06/12 02:53:15;;;;;;;6.97;5.17;;;;;;;16.26;91.32;98644.41;5015290;28;20214;-69
2022/06/12 02:55:46;;;;;;;5.50;5.00;;;;;;;16.21;91.32;98640.81;5011538;28;20560;-68
2022/06/12 02:58:27;;;;;;;7.30;5.37;;;;;;;16.24;91.10;98643.81;5013809;28;20231;-69
2022/06/12 03:00:59;;;;;;;5.43;4.93;;;;;;;16.25;91.26;98644.63;5014554;28;20206;-69
2022/06/12 03:03:39;;;;;;;6.17;5.57;;;;;;;16.26;91.74;98636.34;5013522;28;20580;-69
2022/06/12 03:06:06;;;;;;;9.43;4.90;;;;;;;16.21;91.62;98638.13;5013813;28;20190;-69
2022/06/12 03:08:37;;;;;;;7.03;5.37;;;;;;;16.25;91.21;98637.41;5014118;28;20238;-69
2022/06/12 03:11:10;;;;;;;7.33;5.67;;;;;;;16.26;91.44;98636.34;5014337;28;20207;-69
2022/06/12 03:13:38;;;;;;;7.03;5.30;;;;;;;16.30;91.10;98639.34;5014049;28;20737;-69
2022/06/12 03:16:11;;;;;;;5.93;5.03;;;;;;;16.26;91.66;98640.91;5014047;28;20231;-69
2022/06/12 03:18:41;;;;;;;6.50;5.43;;;;;;;16.23;91.87;98646.72;5014058;28;20313;-69
2022/06/12 03:21:16;;;;;;;5.90;5.30;;;;;;;16.30;91.20;98642.88;5014278;28;20303;-69
2022/06/12 03:23:42;;;;;;;5.70;5.10;;;;;;;16.23;91.72;98644.88;5013672;28;20202;-69
2022/06/12 03:26:16;;;;;;;7.60;5.17;;;;;;;16.29;90.89;98646.59;5014605;28;20298;-69
2022/06/12 03:28:57;;;;;;;6.30;5.63;;;;;;;16.25;91.19;98642.78;5013719;28;20732;-69
2022/06/12 03:31:52;;;;;;;5.50;5.03;;;;;;;16.23;91.39;98644.88;5013849;28;20768;-69
2022/06/12 03:34:44;;;;;;;6.87;5.60;;;;;;;16.20;91.61;98645.34;5006867;28;20206;-69
2022/06/12 03:37:28;;;;;;;8.17;5.13;;;;;;;16.17;91.71;98640.47;5012651;28;20221;-69
2022/06/12 03:40:07;;;;;;;5.73;5.17;;;;;;;16.22;91.53;98637.88;5014779;28;20197;-69
2022/06/12 03:42:41;;;;;;;5.47;4.90;;;;;;;16.26;91.41;98640.91;5008099;28;20202;-69
2022/06/12 03:45:18;;;;;;;7.60;5.13;;;;;;;16.27;91.29;98642.50;5012888;28;20230;-69
2022/06/12 03:47:54;;;;;;;6.73;5.27;;;;;;;16.24;91.10;98646.50;5014531;28;20313;-69
2022/06/12 03:50:36;;;;;;;6.13;5.53;;;;;;;16.21;91.49;98649.69;5013761;28;20202;-69
2022/06/12 03:53:23;;;;;;;6.83;6.13;;;;;;;16.28;90.53;98650.31;5012297;28;20210;-69
2022/06/12 03:59:02;;;;;;;6.43;5.40;;;;;;;16.30;90.41;98653.59;5014514;28;20579;-69
2022/06/12 04:01:31;;;;;;;8.83;6.03;;;;;;;16.37;90.48;98648.88;5014424;28;20200;-69
2022/06/12 04:04:00;;;;;;;6.17;5.47;;;;;;;16.32;90.61;98647.97;5013360;28;20237;-69
2022/06/12 04:06:29;;;;;;;7.93;5.87;;;;;;;16.28;90.51;98650.31;5011877;28;20268;-69
2022/06/12 04:09:05;;;;;;;6.97;6.00;;;;;;;16.32;90.50;98647.97;5013715;28;20329;-69
2022/06/12 04:11:35;;;;;;;7.53;5.77;;;;;;;16.28;91.07;98650.31;4994366;28;20191;-69
2022/06/12 04:14:06;;;;;;;6.13;5.53;;;;;;;16.33;90.58;98645.06;5013323;28;20206;-69
2022/06/12 04:16:40;;;;;;;7.70;5.60;;;;;;;16.35;89.95;98648.31;4994228;28;20212;-69
2022/06/12 04:19:13;;;;;;;7.70;5.67;;;;;;;16.36;89.82;98646.44;5005185;28;20312;-69
2022/06/12 04:21:48;;;;;;;6.47;5.47;;;;;;;16.39;89.85;98648.66;5012750;28;20281;-69
2022/06/12 04:24:33;;;;;;;5.83;5.30;;;;;;;16.31;89.81;98647.19;5012784;28;20579;-69
2022/06/12 04:27:08;;;;;;;6.13;5.63;;;;;;;16.37;90.06;98643.50;5013055;28;20317;-69
2022/06/12 04:29:39;;;;;;;7.70;5.97;;;;;;;16.44;89.58;98651.44;5011750;28;20240;-69
2022/06/12 04:32:08;;;;;;;6.27;5.70;;;;;;;16.52;89.88;98646.50;5013348;28;20651;-69
2022/06/12 04:34:38;;;;;;;6.13;5.53;;;;;;;16.57;89.03;98651.16;5013648;28;20752;-69
2022/06/12 04:37:15;;;;;;;5.90;5.30;;;;;;;16.59;88.97;98644.47;5012897;28;20234;-69
2022/06/12 04:39:43;;;;;;;6.37;5.70;;;;;;;16.64;88.34;98649.13;5013576;28;20284;-69
2022/06/12 04:42:10;;;;;;;10.00;5.97;;;;;;;16.64;87.76;98646.44;5011272;28;20737;-69
2022/06/12 04:44:36;;;;;;;6.47;5.70;;;;;;;16.63;88.12;98647.47;5014290;28;20300;-69
2022/06/12 04:47:05;;;;;;;6.30;5.70;;;;;;;16.70;87.31;98651.63;5012971;28;20305;-69
2022/06/12 04:49:35;;;;;;;8.03;5.37;;;;;;;16.71;87.59;98655.97;5011947;28;20318;-69
2022/06/12 04:52:05;;;;;;;7.53;5.50;;;;;;;16.75;87.08;98651.75;5012059;28;20297;-69
2022/06/12 04:54:32;;;;;;;6.23;5.50;;;;;;;16.84;86.64;98655.66;5010811;28;20297;-69
2022/06/12 04:56:59;;;;;;;7.50;5.37;;;;;;;16.87;87.00;98651.66;5013625;28;20229;-69
2022/06/12 04:59:26;;;;;;;6.43;5.43;;;;;;;16.91;86.73;98658.16;5010829;28;20226;-70
2022/06/12 05:01:53;;;;;;;5.67;5.17;;;;;;;16.96;86.01;98655.56;5010983;28;20290;-70
2022/06/12 05:04:22;;;;;;;6.00;5.43;;;;;;;17.08;85.58;98656.28;5013096;28;20628;-69
2022/06/12 05:06:50;;;;;;;6.63;5.27;;;;;;;17.23;85.32;98657.31;5010838;28;20285;-69
2022/06/12 05:09:17;;;;;;;6.97;5.27;;;;;;;17.57;83.33;98652.72;5012119;28;20257;-69
2022/06/12 05:11:44;;;;;;;5.93;4.80;;;;;;;17.98;81.18;98660.22;5013529;28;20234;-69
2022/06/12 05:14:11;;;;;;;5.93;5.10;;;;;;;18.10;78.42;98659.00;5012304;28;20206;-69
2022/06/12 05:16:43;;;;;;;7.53;5.43;;;;;;;18.36;77.90;98657.44;5011270;28;20659;-70
2022/06/12 05:19:14;;;;;;;9.27;5.40;;;;;;;18.88;76.37;98661.16;5012283;28;20313;-69
2022/06/12 05:21:41;;;;;;;5.10;4.60;;;;;;;19.82;70.72;98662.88;5012303;28;20206;-69
2022/06/12 05:24:09;;;;;;;5.67;4.43;;;;;;;20.07;70.83;98664.88;5013474;28;20210;-69
2022/06/12 05:26:36;;;;;;;5.33;4.33;;;;;;;20.51;67.87;98669.59;5013180;28;20265;-69
2022/06/12 05:29:05;;;;;;;6.57;4.57;;;;;;;19.83;69.47;98664.50;5016876;28;20747;-69
2022/06/12 05:31:32;;;;;;;6.10;4.80;;;;;;;19.90;69.09;98670.44;5015504;28;20210;-69
2022/06/12 05:33:59;;;;;;;5.67;5.00;;;;;;;18.97;72.93;98662.31;5017124;28;20202;-69
2022/06/12 05:36:26;;;;;;;5.73;4.23;;;;;;;18.86;75.08;98666.00;5016131;28;20265;-69
2022/06/12 05:38:53;;;;;;;5.63;4.93;;;;;;;18.88;75.23;98662.00;5017140;28;20229;-70
2022/06/12 05:41:20;;;;;;;5.13;4.40;;;;;;;18.89;75.28;98662.78;5015922;28;20238;-69
2022/06/12 05:43:47;;;;;;;6.07;4.60;;;;;;;19.01;75.61;98655.34;5015029;28;20210;-69
2022/06/12 05:46:16;;;;;;;6.93;4.97;;;;;;;19.05;74.08;98657.25;5016055;28;20205;-69
2022/06/12 05:48:44;;;;;;;6.00;4.93;;;;;;;19.06;74.49;98660.78;5014740;28;20222;-69
2022/06/12 05:51:14;;;;;;;6.30;4.70;;;;;;;19.08;73.58;98662.13;5016798;28;20234;-69
2022/06/12 05:53:40;;;;;;;7.07;4.60;;;;;;;19.05;74.03;98651.88;5016372;28;20210;-69
2022/06/12 05:56:09;;;;;;;8.03;4.60;;;;;;;19.09;74.07;98658.38;5014662;28;20227;-70
2022/06/12 05:58:36;;;;;;;6.80;5.20;;;;;;;19.13;73.70;98654.09;5015391;28;20604;-69
2022/06/12 06:01:08;;;;;;;5.53;4.60;;;;;;;19.23;73.78;98659.56;5014861;28;20217;-69
2022/06/12 06:03:35;;;;;;;5.30;4.80;;;;;;;19.54;71.52;98653.28;5014849;28;20634;-69
2022/06/12 06:06:02;;;;;;;6.17;4.33;;;;;;;19.39;73.08;98657.78;5015020;28;20285;-70
2022/06/12 06:08:29;;;;;;;5.17;4.67;;;;;;;19.29;72.86;98655.84;5010012;28;20226;-69
2022/06/12 06:10:55;;;;;;;4.97;4.43;;;;;;;19.35;73.88;98662.91;5013142;28;20202;-69
2022/06/12 06:13:22;;;;;;;7.47;4.30;;;;;;;19.54;72.45;98657.91;5014289;28;20209;-69
2022/06/12 06:15:50;;;;;;;7.57;4.50;;;;;;;19.64;72.77;98666.03;5013997;28;20286;-70
2022/06/12 06:18:17;;;;;;;5.50;4.43;;;;;;;19.64;72.69;98657.94;5014108;28;20624;-69
2022/06/12 06:20:44;;;;;;;6.13;3.97;;;;;;;19.68;71.91;98657.13;5014817;28;20282;-69
2022/06/12 06:23:11;;;;;;;6.00;4.17;;;;;;;19.89;70.85;98660.75;5014523;28;20673;-70
2022/06/12 06:25:40;;;;;;;8.10;4.13;;;;;;;19.83;71.18;98659.09;5010047;28;20657;-69
2022/06/12 06:28:09;;;;;;;5.20;4.03;;;;;;;20.05;69.49;98665.13;5007358;28;20808;-69
2022/06/12 06:30:36;;;;;;;6.77;4.30;;;;;;;19.99;70.62;98663.47;5014911;28;20206;-69
2022/06/12 06:33:02;;;;;;;5.07;4.00;;;;;;;20.07;71.00;98660.28;5014611;28;20240;-69
2022/06/12 06:35:29;;;;;;;6.67;5.10;;;;;;;20.28;69.57;98662.00;5016027;28;20210;-69
2022/06/12 06:37:56;;;;;;;4.87;3.90;;;;;;;20.28;69.29;98672.81;5014275;28;20226;-70
2022/06/12 06:40:26;;;;;;;8.73;3.90;;;;;;;20.23;69.47;98674.66;5013241;28;20761;-69
2022/06/12 06:42:52;;;;;;;4.40;3.50;;;;;;;20.28;69.82;98671.97;5012495;28;20565;-69
2022/06/12 06:48:05;;;;;;;5.00;3.67;;;;;;;20.69;67.73;98668.28;5014788;28;20288;-69
2022/06/12 06:50:33;;;;;;;6.40;4.50;;;;;;;20.69;67.99;98674.50;5015555;28;20214;-69
2022/06/12 06:53:00;;;;;;;4.80;3.67;;;;;;;20.86;67.64;98666.13;5013338;28;20213;-69
2022/06/12 06:55:28;;;;;;;3.97;3.47;;;;;;;20.73;66.48;98677.47;5015577;28;20298;-69
2022/06/12 06:57:55;;;;;;;5.00;3.70;;;;;;;20.77;66.37;98673.16;5013134;28;20322;-69
2022/06/12 07:00:25;;;;;;;4.87;4.07;;;;;;;20.84;66.90;98676.41;5015293;28;20206;-69
2022/06/12 07:02:51;;;;;;;5.30;3.90;;;;;;;20.86;65.71;98668.84;5013881;28;20210;-69
2022/06/12 07:05:19;;;;;;;5.40;3.43;;;;;;;21.03;66.19;98669.41;5015174;28;20206;-69
2022/06/12 07:07:45;;;;;;;5.00;3.47;;;;;;;20.97;63.51;98667.78;5013928;28;20309;-69
2022/06/12 07:10:16;;;;;;;6.37;3.20;;;;;;;21.15;63.31;98669.94;5014242;28;20235;-69
2022/06/12 07:12:42;;;;;;;4.57;3.20;;;;;;;21.46;62.70;98672.34;5012001;28;20285;-69
2022/06/12 07:15:11;;;;;;;4.27;3.13;;;;;;;21.64;62.81;98674.47;5013686;28;20673;-69
2022/06/12 07:17:37;;;;;;;5.63;3.40;;;;;;;21.78;62.55;98669.28;5012321;28;20281;-69
2022/06/12 07:20:04;;;;;;;6.33;3.20;;;;;;;21.90;62.46;98667.91;5014595;28;20301;-69
2022/06/12 07:22:31;;;;;;;4.30;3.00;;;;;;;21.88;62.50;98666.56;5008905;28;20198;-70
2022/06/12 07:24:57;;;;;;;3.53;2.93;;;;;;;22.06;61.71;98666.75;5010875;28;20674;-69
2022/06/12 07:27:24;;;;;;;4.73;3.03;;;;;;;22.14;58.78;98659.94;5012755;28;20210;-69
2022/06/12 07:29:50;;;;;;;4.47;2.77;;;;;;;22.33;58.32;98663.63;5024061;28;20198;-69
2022/06/12 07:32:16;;;;;;;5.78;3.47;;;;;;;22.21;58.99;98663.16;5013237;28;20210;-70
2022/06/12 07:34:43;;;;;;;4.90;3.20;;;;;;;22.20;60.34;98658.84;5011676;28;20199;-70
2022/06/12 07:37:09;;;;;;;5.47;3.30;;;;;;;22.08;60.68;98658.34;5013680;28;20309;-69
2022/06/12 07:39:36;;;;;;;6.63;3.03;;;;;;;22.21;59.40;98649.63;5012551;28;20305;-69
2022/06/12 07:42:03;;;;;;;4.30;2.70;;;;;;;22.24;58.74;98657.22;5011418;28;20570;-69
2022/06/12 07:44:32;;;;;;;4.43;2.60;;;;;;;22.61;58.32;98649.41;5013077;28;20310;-68
2022/06/12 07:46:59;;;;;;;5.53;2.70;;;;;;;22.73;57.12;98647.13;5013547;28;20289;-69
2022/06/12 07:49:29;;;;;;;6.47;2.75;;;;;;;22.99;56.69;98648.56;5011746;28;20226;-69
2022/06/12 07:51:59;;;;;;;3.83;2.95;;;;;;;23.00;56.30;98642.03;5008951;28;20294;-69
2022/06/12 07:54:27;;;;;;;3.50;2.90;;;;;;;23.23;56.23;98652.16;5027301;28;20293;-69
2022/06/12 07:56:53;;;;;;;2.85;2.60;;;;;;;23.12;54.89;98645.19;5029809;28;20332;-69
2022/06/12 07:59:21;;;;;;;4.68;2.92;;;;;;;23.40;56.19;98636.28;5012236;28;20242;-70
2022/06/12 08:01:47;;;;;;;6.10;2.63;;;;;;;23.43;54.00;98641.91;5012341;28;20213;-69
2022/06/12 08:04:15;;;;;;;4.28;2.80;;;;;;;23.38;53.17;98635.75;5012936;28;20306;-69
2022/06/12 08:06:41;;;;;;;4.63;2.72;;;;;;;23.67;53.58;98633.81;5011884;28;20202;-69
2022/06/12 08:10:16;;;;;;;3.45;2.95;;;;;;;23.65;54.72;98636.78;5090610;27;20535;-69
2022/06/12 08:12:44;;;;;;;4.22;2.95;;;;;;;23.87;53.02;98638.97;5080241;28;20204;-69
2022/06/12 08:15:15;;;;;;;5.15;3.20;;;;;;;23.90;53.90;98641.16;5069601;28;20674;-69
2022/06/12 08:17:42;;;;;;;4.50;3.15;;;;;;;23.81;53.00;98632.81;5072814;28;20306;-69
2022/06/12 08:20:30;;;;;;;5.72;3.30;;;;;;;23.68;54.19;98641.66;5077320;28;20235;-70
2022/06/12 08:23:02;;;;;;;4.53;3.20;;;;;;;23.80;54.06;98635.81;5069685;28;20686;-69
2022/06/12 08:25:32;;;;;;;3.17;2.88;;;;;;;23.90;53.95;98631.13;5069510;28;20594;-70
2022/06/12 08:28:00;;;;;;;4.28;2.55;;;;;;;24.08;51.87;98641.19;5070136;28;20228;-69
2022/06/12 08:30:27;;;;;;;6.50;2.85;;;;;;;24.09;51.38;98640.09;5069157;28;20213;-69
2022/06/12 08:32:55;;;;;;;7.60;2.90;;;;;;;24.31;51.96;98643.06;5069142;28;20730;-69
2022/06/12 08:35:26;;;;;;;3.25;2.63;;;;;;;24.22;51.24;98638.56;5069146;28;20572;-69
2022/06/12 08:37:53;;;;;;;4.35;2.58;;;;;;;24.39;50.95;98634.25;5085279;28;20302;-69
2022/06/12 08:40:38;;;;;;;4.10;2.30;;;;;;;24.48;50.63;98637.13;5088325;28;20212;-70
2022/06/12 08:43:27;;;;;;;3.05;2.38;;;;;;;24.36;51.11;98629.41;5078028;28;20197;-69
2022/06/12 08:45:58;;;;;;;5.22;2.63;;;;;;;24.44;50.96;98625.22;5069955;28;20204;-69
2022/06/12 08:48:33;;;;;;;4.35;2.53;;;;;;;24.66;50.81;98628.16;5069604;28;20254;-70
2022/06/12 08:51:10;;;;;;;3.67;2.65;;;;;;;24.22;50.06;98624.97;5068060;28;20539;-69
2022/06/12 08:53:51;;;;;;;4.47;2.70;;;;;;;24.62;49.70;98625.25;5069244;28;20287;-69
2022/06/12 08:56:30;;;;;;;2.83;2.50;;;;;;;25.07;48.60;98621.78;5069780;28;20196;-69
2022/06/12 08:59:05;;;;;;;3.50;2.60;;;;;;;25.09;46.69;98624.16;5070248;28;20220;-69
2022/06/12 09:01:32;;;;;;;3.35;2.35;;;;;;;25.03;47.83;98628.91;5069176;28;20540;-69
2022/06/12 09:03:58;;;;;;;5.15;2.70;;;;;;;24.80;48.08;98620.88;5079737;28;20646;-70
2022/06/12 09:06:30;;;;;;;3.80;2.42;;;;;;;24.23;48.48;98618.44;5071824;28;20211;-69
2022/06/12 09:09:07;;;;;;;5.80;2.70;;;;;;;24.09;48.57;98612.94;5068938;28;20229;-69
2022/06/12 09:11:38;;;;;;;2.83;2.40;;;;;;;24.13;48.29;98610.44;5067476;28;20207;-69
2022/06/12 09:14:34;;;;;;;3.53;2.38;;;;;;;24.38;48.58;98605.44;5085704;28;20567;-69
2022/06/12 09:17:22;;;;;;;2.78;2.47;;;;;;;24.94;47.85;98608.13;5075507;28;20367;-69
2022/06/12 09:20:16;;;;;;;4.30;2.60;;;;;;;25.28;47.01;98593.09;5065143;28;20731;-69
2022/06/12 09:22:51;;;;;;;3.03;2.30;;;;;;;25.58;46.87;98594.44;5068107;28;20193;-69
2022/06/12 09:25:25;;;;;;;4.88;2.45;;;;;;;25.75;45.53;98598.19;5075599;28;20752;-69
2022/06/12 09:27:51;;;;;;;6.68;2.47;;;;;;;25.89;46.94;98593.53;5055966;28;20233;-69
2022/06/12 09:30:37;;;;;;;3.50;2.95;;;;;;;26.08;45.40;98591.50;5055442;28;20532;-69
2022/06/12 09:33:18;;;;;;;4.20;2.50;;;;;;;26.27;46.79;98594.88;5054944;28;20201;-70
2022/06/12 09:36:09;;;;;;;3.53;2.83;;;;;;;26.35;45.94;98596.06;5053752;28;20509;-69
2022/06/12 09:38:59;;;;;;;3.42;2.70;;;;;;;26.19;46.08;98586.63;5056147;28;20227;-69
2022/06/12 09:41:33;;;;;;;3.70;2.60;;;;;;;26.37;44.66;98582.94;5055019;28;20201;-70
2022/06/12 09:44:13;;;;;;;4.03;2.40;;;;;;;26.69;44.23;98586.25;5054860;28;20284;-69
2022/06/12 09:47:04;;;;;;;2.97;2.35;;;;;;;25.61;44.27;98583.75;5054845;28;20219;-69
2022/06/12 09:49:52;;;;;;;3.65;2.70;;;;;;;25.90;45.27;98580.69;5055231;28;20240;-70
2022/06/12 09:52:38;;;;;;;4.43;2.92;;;;;;;25.37;44.84;98579.63;5052995;28;20201;-69
2022/06/12 09:55:47;;;;;;;4.00;2.40;;;;;;;25.38;45.54;98570.34;5054763;28;20186;-69
2022/06/12 09:58:29;;;;;;;5.43;2.55;;;;;;;25.38;44.81;98573.06;5054784;28;20674;-69
2022/06/12 10:01:17;;;;;;;5.32;2.72;;;;;;;25.36;43.78;98573.34;5054847;28;20637;-69
2022/06/12 10:03:54;;;;;;;3.13;2.40;;;;;;;25.91;44.06;98566.75;5055736;28;20240;-70
2022/06/12 10:06:28;;;;;;;3.65;2.40;;;;;;;25.76;43.10;98560.84;5053982;28;20272;-69
2022/06/12 10:09:02;;;;;;;3.03;2.30;;;;;;;26.43;44.55;98557.16;5054435;28;20242;-69
2022/06/12 10:11:41;;;;;;;4.80;2.63;;;;;;;26.76;41.87;98556.66;5055211;28;20197;-69
2022/06/12 10:14:16;;;;;;;4.05;2.40;;;;;;;26.76;43.21;98553.91;5054718;28;20198;-68
2022/06/12 10:16:54;;;;;;;3.83;2.38;;;;;;;27.08;42.95;98548.16;5072398;28;20205;-70
2022/06/12 10:19:34;;;;;;;2.83;2.33;;;;;;;27.16;41.95;98543.84;5061623;28;20216;-70
2022/06/12 10:22:07;;;;;;;4.88;2.72;;;;;;;27.26;43.07;98548.28;5053784;28;20205;-69
2022/06/12 10:24:34;;;;;;;2.70;2.38;;;;;;;27.10;41.37;98551.38;5053568;28;20216;-69
2022/06/12 10:27:08;;;;;;;3.70;2.67;;;;;;;26.29;42.27;98550.97;5054169;28;20296;-70
2022/06/12 10:29:51;;;;;;;3.47;2.25;;;;;;;26.15;43.28;98542.03;5053634;28;20248;-69
2022/06/12 10:32:21;;;;;;;3.75;2.50;;;;;;;26.04;41.90;98541.44;5053282;28;20202;-69
2022/06/12 10:34:48;;;;;;;4.47;2.60;;;;;;;25.85;43.00;98545.38;5065949;28;20227;-69
2022/06/12 10:37:29;;;;;;;3.42;2.47;;;;;;;26.31;42.76;98537.81;5054174;28;20292;-69
2022/06/12 10:40:01;;;;;;;3.75;2.35;;;;;;;26.66;42.09;98543.25;5053681;28;20232;-69
2022/06/12 10:42:45;;;;;;;3.67;2.50;;;;;;;26.72;41.05;98541.19;5062332;28;20283;-69
2022/06/12 10:45:34;;;;;;;5.93;2.45;;;;;;;26.06;42.91;98539.19;5068009;28;20208;-71
2022/06/12 10:48:04;;;;;;;3.53;2.22;;;;;;;26.08;44.28;98538.91;5060494;28;20232;-69
2022/06/12 10:50:34;;;;;;;6.15;2.40;;;;;;;26.56;42.69;98532.56;5054438;28;20232;-71
2022/06/12 10:53:10;;;;;;;5.00;2.50;;;;;;;26.72;41.99;98531.09;5053560;28;20204;-71
2022/06/12 10:55:57;;;;;;;3.85;2.42;;;;;;;27.30;42.13;98511.81;5057574;28;20278;-70
2022/06/12 10:58:45;;;;;;;3.90;2.38;;;;;;;27.49;40.92;98512.38;5054145;28;20287;-71
2022/06/12 11:01:36;;;;;;;4.75;2.90;;;;;;;27.83;40.18;98517.13;5052290;28;20277;-70
2022/06/12 11:04:24;;;;;;;3.15;2.60;;;;;;;27.80;40.96;98513.09;5053897;28;20197;-71
2022/06/12 11:07:00;;;;;;;5.63;2.50;;;;;;;27.96;39.91;98511.53;5063241;28;20205;-71
2022/06/12 11:09:56;;;;;;;7.25;2.17;;;;;;;27.78;38.68;98509.88;5064734;28;20233;-70
2022/06/12 11:12:34;;;;;;;3.90;2.00;;;;;;;27.70;39.18;98513.38;5052411;28;20579;-71
2022/06/12 11:15:11;;;;;;;2.97;2.13;;;;;;;26.98;38.45;98502.03;5068187;28;20196;-70
2022/06/12 11:18:24;;;;;;;4.22;2.08;;;;;;;27.27;38.65;98498.81;5063657;28;20299;-71
2022/06/12 11:21:13;;;;;;;3.55;2.22;;;;;;;27.54;37.98;98505.97;5043169;28;20240;-70
2022/06/12 11:24:07;;;;;;;3.45;2.00;;;;;;;27.55;38.19;98500.19;5036164;28;20612;-71
2022/06/12 11:26:52;;;;;;;5.35;2.10;;;;;;;27.62;37.06;98489.56;5054456;28;20201;-71
2022/06/12 11:29:41;;;;;;;2.97;1.90;;;;;;;27.57;38.62;98489.72;5071705;28;20765;-71
2022/06/12 11:32:25;;;;;;;2.42;2.00;;;;;;;27.44;36.87;98490.66;5052769;28;20205;-71
2022/06/12 11:35:08;;;;;;;3.15;2.28;;;;;;;27.52;37.44;98481.69;5052650;28;20250;-69
2022/06/12 11:37:49;;;;;;;2.28;1.83;;;;;;;27.76;37.67;98487.50;5064660;28;20287;-69
2022/06/12 11:40:32;;;;;;;4.03;2.33;;;;;;;27.75;37.69;98487.84;5067174;28;20284;-71
2022/06/12 11:43:09;;;;;;;2.85;1.92;;;;;;;27.44;37.61;98478.94;5056967;28;20645;-69
2022/06/12 11:45:47;;;;;;;6.97;2.10;;;;;;;27.30;37.99;98475.53;5060708;28;20196;-71
2022/06/12 11:48:31;;;;;;;5.13;2.33;;;;;;;27.28;37.86;98470.38;5072619;28;20315;-71
2022/06/12 11:51:03;;;;;;;4.15;2.20;;;;;;;27.25;37.82;98468.28;5051917;28;20220;-72
2022/06/12 11:53:58;;;;;;;3.88;3.20;;;;;;;27.46;37.51;98472.03;5052674;28;20212;-72
2022/06/12 11:56:46;;;;;;;4.35;2.25;;;;;;;27.45;37.62;98461.44;5062919;28;20843;-71
2022/06/12 11:59:27;;;;;;;2.85;2.00;;;;;;;27.57;38.14;98459.69;5051961;28;20228;-72
2022/06/12 12:02:26;;;;;;;3.42;2.28;;;;;;;27.86;37.92;98457.19;5072514;28;20735;-72
2022/06/12 12:04:53;;;;;;;2.63;2.30;;;;;;;28.07;37.39;98454.63;5068640;28;20287;-71
2022/06/12 12:07:31;;;;;;;2.88;2.05;;;;;;;27.79;38.02;98451.34;5053297;28;20211;-71
2022/06/12 12:10:15;;;;;;;2.03;1.90;;;;;;;28.13;38.29;98442.38;5051970;28;20312;-71
2022/06/12 12:12:46;;;;;;;2.85;2.05;;;;;;;28.28;37.46;98448.16;5052687;28;20196;-71
2022/06/12 12:15:21;;;;;;;4.05;2.00;;;;;;;27.95;38.35;98449.81;5059981;28;20291;-69